Time;durP1;ratioP1;P1;durP2;ratioP2;P2;SDS_P1;SDS_P2;PMS_P1;PMS_P2;Temp;Humidity;BMP_temperature;BMP_pressure;BME280_temperature;BME280_humidity;BME280_pressure;Samples;Min_cycle;Max_cycle;Signal;HPM_P1;HPM_P2
2022/09/15 00:01:18;;;;;;;;;;;23.40;47.30;;;;;;8332022;28;19995;-45
2022/09/15 00:05:19;;;;;;;;;;;23.40;47.40;;;;;;8331310;28;19921;-45
2022/09/15 00:09:19;;;;;;;;;;;23.40;47.40;;;;;;8331795;28;19928;-45
2022/09/15 00:13:20;;;;;;;;;;;23.40;47.30;;;;;;8331598;28;20047;-46
2022/09/15 00:17:21;;;;;;;;;;;23.40;47.40;;;;;;8340958;28;19923;-46
2022/09/15 00:21:23;;;;;;;;;;;23.40;47.40;;;;;;8364160;28;20003;-45
2022/09/15 00:25:23;;;;;;;;;;;23.40;47.40;;;;;;8364420;28;19951;-45
2022/09/15 00:29:23;;;;;;;;;;;23.40;47.40;;;;;;8362762;28;19916;-45
2022/09/15 00:33:24;;;;;;;;;;;23.40;47.40;;;;;;8363683;28;20349;-45
2022/09/15 00:37:24;;;;;;;;;;;23.30;47.40;;;;;;8363691;28;20328;-44
2022/09/15 00:41:25;;;;;;;;;;;23.40;47.40;;;;;;8363357;28;19917;-45
2022/09/15 00:45:26;;;;;;;;;;;23.40;47.40;;;;;;8364034;28;19929;-45
2022/09/15 00:49:33;;;;;;;;;;;23.40;47.40;;;;;;8363768;28;19921;-44
2022/09/15 00:53:34;;;;;;;;;;;23.30;47.40;;;;;;8363037;28;19940;-44
2022/09/15 00:57:46;;;;;;;;;;;23.30;47.40;;;;;;8363355;28;19913;-44
2022/09/15 01:01:48;;;;;;;;;;;23.30;47.40;;;;;;8363420;28;19925;-46
2022/09/15 01:05:53;;;;;;;;;;;23.30;47.40;;;;;;8361139;28;19925;-45
2022/09/15 01:09:56;;;;;;;;;;;23.30;47.40;;;;;;8325559;28;19917;-45
2022/09/15 01:13:56;;;;;;;;;;;23.30;47.40;;;;;;8317329;28;19917;-44
2022/09/15 01:18:10;;;;;;;;;;;23.30;47.40;;;;;;8329671;28;20301;-45
2022/09/15 01:22:13;;;;;;;;;;;23.30;47.40;;;;;;8330222;28;19925;-45
2022/09/15 01:26:33;;;;;;;;;;;23.30;47.50;;;;;;8330218;28;19925;-44
2022/09/15 01:30:38;;;;;;;;;;;23.30;47.40;;;;;;8329620;28;19923;-44
2022/09/15 01:34:42;;;;;;;;;;;23.30;47.40;;;;;;8329905;28;20389;-45
2022/09/15 01:38:48;;;;;;;;;;;23.30;47.40;;;;;;8330779;28;20384;-46
2022/09/15 01:42:50;;;;;;;;;;;23.30;47.40;;;;;;8335767;28;19921;-45
2022/09/15 01:46:57;;;;;;;;;;;23.30;47.50;;;;;;8335753;28;19920;-46
2022/09/15 01:50:59;;;;;;;;;;;23.30;47.50;;;;;;8335791;28;20382;-45
2022/09/15 01:55:02;;;;;;;;;;;23.30;47.40;;;;;;8335585;28;19952;-45
2022/09/15 01:59:03;;;;;;;;;;;23.30;47.50;;;;;;8335317;28;19921;-44
2022/09/15 02:03:24;;;;;;;;;;;23.30;47.40;;;;;;8334600;28;19987;-44
2022/09/15 02:07:35;;;;;;;;;;;23.30;47.50;;;;;;8334741;28;20004;-45
2022/09/15 02:11:39;;;;;;;;;;;23.30;47.50;;;;;;8334904;28;19913;-45
2022/09/15 02:15:47;;;;;;;;;;;23.30;47.50;;;;;;8335387;28;19924;-46
2022/09/15 02:19:49;;;;;;;;;;;23.30;47.50;;;;;;8334953;28;19921;-44
2022/09/15 02:23:53;;;;;;;;;;;23.30;47.50;;;;;;8334356;28;20350;-45
2022/09/15 02:27:55;;;;;;;;;;;23.30;47.50;;;;;;8334761;28;20290;-45
2022/09/15 02:31:58;;;;;;;;;;;23.30;47.60;;;;;;8334813;28;19913;-44
2022/09/15 02:35:58;;;;;;;;;;;23.20;47.50;;;;;;8334204;28;19952;-44
2022/09/15 02:40:00;;;;;;;;;;;23.20;47.50;;;;;;8334589;28;19918;-45
2022/09/15 02:44:00;;;;;;;;;;;23.20;47.40;;;;;;8334050;28;19921;-44
2022/09/15 02:48:01;;;;;;;;;;;23.20;47.40;;;;;;8333663;28;19952;-44
2022/09/15 02:52:02;;;;;;;;;;;23.20;47.50;;;;;;8333625;28;19921;-45
2022/09/15 02:56:04;;;;;;;;;;;23.20;47.50;;;;;;8333902;28;19928;-45
2022/09/15 03:00:11;;;;;;;;;;;23.20;48.00;;;;;;8333267;28;19921;-44
2022/09/15 03:04:12;;;;;;;;;;;23.20;47.50;;;;;;8333490;28;19929;-45
2022/09/15 03:08:12;;;;;;;;;;;23.20;47.50;;;;;;8333567;28;19964;-45
2022/09/15 03:12:13;;;;;;;;;;;23.20;47.50;;;;;;8333211;28;19917;-45
2022/09/15 03:16:15;;;;;;;;;;;23.20;47.50;;;;;;8333554;28;20366;-44
2022/09/15 03:20:16;;;;;;;;;;;23.20;47.50;;;;;;8333112;28;20016;-44
2022/09/15 03:24:18;;;;;;;;;;;23.20;47.60;;;;;;8332479;28;19976;-45
2022/09/15 03:28:19;;;;;;;;;;;23.20;47.50;;;;;;8333044;28;19967;-45
2022/09/15 03:32:19;;;;;;;;;;;23.20;47.50;;;;;;8332482;28;19943;-44
2022/09/15 03:36:19;;;;;;;;;;;23.20;47.50;;;;;;8332840;28;19928;-44
2022/09/15 03:40:20;;;;;;;;;;;23.20;47.50;;;;;;8332447;28;19924;-45
2022/09/15 03:44:20;;;;;;;;;;;23.20;47.50;;;;;;8346796;28;19927;-46
2022/09/15 03:48:22;;;;;;;;;;;23.20;47.50;;;;;;8365228;28;19959;-44
2022/09/15 03:52:22;;;;;;;;;;;23.10;47.50;;;;;;8365342;28;20445;-45
2022/09/15 03:56:29;;;;;;;;;;;23.10;47.50;;;;;;8364541;28;20042;-44
2022/09/15 04:00:29;;;;;;;;;;;23.20;47.50;;;;;;8364740;28;20405;-44
2022/09/15 04:04:30;;;;;;;;;;;23.20;47.50;;;;;;8364489;28;19982;-44
2022/09/15 04:08:30;;;;;;;;;;;23.10;47.50;;;;;;8348359;28;19917;-43
2022/09/15 04:12:31;;;;;;;;;;;23.10;47.50;;;;;;8331736;28;19913;-44
2022/09/15 04:16:32;;;;;;;;;;;23.10;47.50;;;;;;8331305;28;20255;-45
2022/09/15 04:20:33;;;;;;;;;;;23.10;47.50;;;;;;8330760;28;19956;-46
2022/09/15 04:24:33;;;;;;;;;;;23.10;47.50;;;;;;8331155;28;19932;-44
2022/09/15 04:28:36;;;;;;;;;;;23.10;47.50;;;;;;8330970;28;19939;-44
2022/09/15 04:32:36;;;;;;;;;;;23.10;47.50;;;;;;8330855;28;19918;-45
2022/09/15 04:36:37;;;;;;;;;;;23.10;47.50;;;;;;8330827;28;20435;-45
2022/09/15 04:40:37;;;;;;;;;;;23.10;47.60;;;;;;8330704;28;19925;-46
2022/09/15 04:44:38;;;;;;;;;;;23.10;47.60;;;;;;8330127;28;19933;-45
2022/09/15 04:48:38;;;;;;;;;;;23.10;47.60;;;;;;8330485;28;19917;-46
2022/09/15 04:52:38;;;;;;;;;;;23.00;47.50;;;;;;8330682;28;20281;-45
2022/09/15 04:56:39;;;;;;;;;;;23.10;47.60;;;;;;8330101;28;19923;-46
2022/09/15 05:00:42;;;;;;;;;;;23.10;47.60;;;;;;8330490;28;19924;-46
2022/09/15 05:04:42;;;;;;;;;;;23.10;47.60;;;;;;8330424;28;20400;-45
2022/09/15 05:08:47;;;;;;;;;;;23.10;47.60;;;;;;8329753;28;19917;-47
2022/09/15 05:12:47;;;;;;;;;;;23.10;47.60;;;;;;8330503;28;19924;-46
2022/09/15 05:16:48;;;;;;;;;;;23.10;47.50;;;;;;8336944;28;19917;-46
2022/09/15 05:20:48;;;;;;;;;;;23.00;47.80;;;;;;8336367;28;20008;-45
2022/09/15 05:24:49;;;;;;;;;;;23.00;47.50;;;;;;8336855;28;19929;-45
2022/09/15 05:28:49;;;;;;;;;;;23.10;47.60;;;;;;8336703;28;19920;-46
2022/09/15 05:32:50;;;;;;;;;;;23.10;47.60;;;;;;8336269;28;19917;-45
2022/09/15 05:36:50;;;;;;;;;;;23.00;47.60;;;;;;8336311;28;19925;-46
2022/09/15 05:40:51;;;;;;;;;;;23.00;47.60;;;;;;8336231;28;20321;-46
2022/09/15 05:44:51;;;;;;;;;;;23.00;47.60;;;;;;8335508;28;20004;-45
2022/09/15 05:48:53;;;;;;;;;;;23.00;47.60;;;;;;8335814;28;20348;-45
2022/09/15 05:52:53;;;;;;;;;;;23.00;47.60;;;;;;8336173;28;20255;-45
2022/09/15 05:56:54;;;;;;;;;;;23.00;47.60;;;;;;8343931;28;19921;-45
2022/09/15 06:00:54;;;;;;;;;;;23.00;47.60;;;;;;8348377;28;19960;-45
2022/09/15 06:04:55;;;;;;;;;;;23.00;47.60;;;;;;8335276;28;19922;-46
2022/09/15 06:08:56;;;;;;;;;;;23.00;47.60;;;;;;8334784;28;20290;-45
2022/09/15 06:12:56;;;;;;;;;;;23.00;47.60;;;;;;8335370;28;19920;-44
2022/09/15 06:16:57;;;;;;;;;;;23.00;47.40;;;;;;8335023;28;19921;-45
2022/09/15 06:21:01;;;;;;;;;;;23.10;47.30;;;;;;8334557;28;19921;-44
2022/09/15 06:25:01;;;;;;;;;;;23.10;47.30;;;;;;8333399;28;19928;-45
2022/09/15 06:29:03;;;;;;;;;;;23.10;47.40;;;;;;8334823;28;19917;-44
2022/09/15 06:33:04;;;;;;;;;;;23.10;47.40;;;;;;8334255;28;19913;-45
2022/09/15 06:37:04;;;;;;;;;;;23.00;47.40;;;;;;8334426;28;20381;-45
2022/09/15 06:41:05;;;;;;;;;;;23.00;47.40;;;;;;8334448;28;19958;-45
2022/09/15 06:45:06;;;;;;;;;;;23.10;47.50;;;;;;8333622;28;19932;-46
2022/09/15 06:49:06;;;;;;;;;;;23.00;47.40;;;;;;8333897;28;19936;-45
2022/09/15 06:53:07;;;;;;;;;;;23.10;47.50;;;;;;8334289;28;19921;-44
2022/09/15 06:57:07;;;;;;;;;;;23.00;47.40;;;;;;8333364;28;19960;-45
2022/09/15 07:01:09;;;;;;;;;;;23.10;47.50;;;;;;8333652;28;19921;-46
2022/09/15 07:05:09;;;;;;;;;;;23.00;47.50;;;;;;8332853;28;20009;-44
2022/09/15 07:09:10;;;;;;;;;;;23.00;47.40;;;;;;8302408;28;19920;-47
2022/09/15 07:13:11;;;;;;;;;;;23.00;47.50;;;;;;8333723;28;19917;-45
2022/09/15 07:17:11;;;;;;;;;;;23.00;47.50;;;;;;8333212;28;20012;-46
2022/09/15 07:21:16;;;;;;;;;;;23.00;47.50;;;;;;8332690;28;20281;-45
2022/09/15 07:25:17;;;;;;;;;;;23.10;47.60;;;;;;8332784;28;20021;-44
2022/09/15 07:29:17;;;;;;;;;;;23.00;47.50;;;;;;8332825;28;19921;-45
2022/09/15 07:33:18;;;;;;;;;;;23.00;47.50;;;;;;8332340;28;19917;-43
2022/09/15 07:37:18;;;;;;;;;;;23.10;47.60;;;;;;8331985;28;19921;-44
2022/09/15 07:41:20;;;;;;;;;;;23.10;47.60;;;;;;8332052;28;19913;-44
2022/09/15 07:45:20;;;;;;;;;;;23.00;47.50;;;;;;8342408;28;19978;-46
2022/09/15 07:49:21;;;;;;;;;;;23.10;47.60;;;;;;8365419;28;19913;-45
2022/09/15 07:53:21;;;;;;;;;;;23.00;47.50;;;;;;8364792;28;20338;-44
2022/09/15 07:57:22;;;;;;;;;;;23.00;48.00;;;;;;8365186;28;19971;-44
2022/09/15 08:01:22;;;;;;;;;;;23.00;47.60;;;;;;8364684;28;19963;-44
2022/09/15 08:05:27;;;;;;;;;;;23.00;47.60;;;;;;8364072;28;19924;-45
2022/09/15 08:09:27;;;;;;;;;;;23.00;47.60;;;;;;8364787;28;19921;-44
2022/09/15 08:13:28;;;;;;;;;;;23.00;47.70;;;;;;8364682;28;19960;-45
2022/09/15 08:17:28;;;;;;;;;;;23.00;47.70;;;;;;8363833;28;19912;-44
2022/09/15 08:21:29;;;;;;;;;;;23.00;47.60;;;;;;8364534;28;19924;-43
2022/09/15 08:25:29;;;;;;;;;;;23.00;47.70;;;;;;8364114;28;19925;-43
2022/09/15 08:29:30;;;;;;;;;;;23.00;47.60;;;;;;8363484;28;19925;-45
2022/09/15 08:33:31;;;;;;;;;;;23.10;47.80;;;;;;8364234;28;19982;-43
2022/09/15 08:37:31;;;;;;;;;;;23.00;47.70;;;;;;8363668;28;19921;-43
2022/09/15 08:41:45;;;;;;;;;;;23.00;47.70;;;;;;8363370;28;19993;-44
2022/09/15 08:45:51;;;;;;;;;;;23.00;47.70;;;;;;8363604;28;19921;-44
2022/09/15 08:50:02;;;;;;;;;;;23.00;47.70;;;;;;8363188;28;19923;-45
2022/09/15 08:54:06;;;;;;;;;;;23.00;47.80;;;;;;8363175;28;19917;-45
2022/09/15 08:58:12;;;;;;;;;;;23.00;47.80;;;;;;8363501;28;20366;-44
2022/09/15 09:02:31;;;;;;;;;;;23.00;47.80;;;;;;8363385;28;20352;-45
2022/09/15 09:06:45;;;;;;;;;;;23.00;47.80;;;;;;8362934;28;19931;-44
2022/09/15 09:10:53;;;;;;;;;;;23.00;47.90;;;;;;8363290;28;19917;-44
2022/09/15 09:15:03;;;;;;;;;;;23.00;47.80;;;;;;8362995;28;19913;-44
2022/09/15 09:19:18;;;;;;;;;;;23.00;47.90;;;;;;8363207;28;19912;-45
2022/09/15 09:23:22;;;;;;;;;;;23.00;47.90;;;;;;8362293;28;19956;-44
2022/09/15 09:27:25;;;;;;;;;;;23.10;47.90;;;;;;8363193;28;19917;-44
2022/09/15 09:31:27;;;;;;;;;;;23.00;47.90;;;;;;8362951;28;19923;-43
2022/09/15 09:35:41;;;;;;;;;;;23.00;47.90;;;;;;8362231;28;20362;-44
2022/09/15 09:39:42;;;;;;;;;;;23.00;47.90;;;;;;8363191;28;20286;-45
2022/09/15 09:43:45;;;;;;;;;;;23.00;47.90;;;;;;8331158;28;19925;-45
2022/09/15 09:47:45;;;;;;;;;;;23.10;47.90;;;;;;8329392;28;19959;-43
2022/09/15 09:51:51;;;;;;;;;;;23.10;47.90;;;;;;8329533;28;19917;-43
2022/09/15 09:56:11;;;;;;;;;;;23.10;47.90;;;;;;8336385;28;19935;-44
2022/09/15 10:00:32;;;;;;;;;;;23.10;47.90;;;;;;8364123;28;19987;-44
2022/09/15 10:04:32;;;;;;;;;;;23.10;47.80;;;;;;8368895;28;19921;-44
2022/09/15 10:08:34;;;;;;;;;;;23.20;47.90;;;;;;8354530;28;19924;-44
2022/09/15 10:12:39;;;;;;;;;;;23.20;47.80;;;;;;8322902;28;19917;-44
2022/09/15 10:16:39;;;;;;;;;;;23.10;47.80;;;;;;8335188;28;19917;-42
2022/09/15 10:20:48;;;;;;;;;;;23.20;47.90;;;;;;8334684;28;20405;-44
2022/09/15 10:24:49;;;;;;;;;;;23.20;47.90;;;;;;8335066;28;20008;-44
2022/09/15 10:29:09;;;;;;;;;;;23.20;47.90;;;;;;8334707;28;19924;-45
2022/09/15 10:33:24;;;;;;;;;;;23.20;47.80;;;;;;8334164;28;19917;-44
2022/09/15 10:37:34;;;;;;;;;;;23.20;47.80;;;;;;8334474;28;20340;-45
2022/09/15 10:41:43;;;;;;;;;;;23.20;47.90;;;;;;8334014;28;20003;-44
2022/09/15 10:45:47;;;;;;;;;;;23.20;47.90;;;;;;8334164;28;19928;-44
2022/09/15 10:49:57;;;;;;;;;;;23.10;47.90;;;;;;8334368;28;19921;-45
2022/09/15 10:54:03;;;;;;;;;;;23.10;48.00;;;;;;8333502;28;20134;-45
2022/09/15 10:58:21;;;;;;;;;;;23.10;48.00;;;;;;8333839;28;19921;-46
2022/09/15 11:02:40;;;;;;;;;;;23.10;48.00;;;;;;8333411;28;20012;-43
2022/09/15 11:06:47;;;;;;;;;;;23.10;48.00;;;;;;8333671;28;20396;-43
2022/09/15 11:10:59;;;;;;;;;;;23.10;48.00;;;;;;8332655;28;19956;-44
2022/09/15 11:15:15;;;;;;;;;;;23.10;48.00;;;;;;8333247;28;20376;-43
2022/09/15 11:19:34;;;;;;;;;;;23.10;48.10;;;;;;8333279;28;20011;-43
2022/09/15 11:23:40;;;;;;;;;;;23.10;48.10;;;;;;8332636;28;19947;-44
2022/09/15 11:27:42;;;;;;;;;;;23.10;48.20;;;;;;8333024;28;19940;-46
2022/09/15 11:31:45;;;;;;;;;;;23.10;48.20;;;;;;8333111;28;19924;-44
2022/09/15 11:35:55;;;;;;;;;;;23.10;48.10;;;;;;8332212;28;19974;-44
2022/09/15 11:39:59;;;;;;;;;;;23.10;48.20;;;;;;8332791;28;19917;-44
2022/09/15 11:44:19;;;;;;;;;;;23.10;48.10;;;;;;8332299;28;19925;-43
2022/09/15 11:48:36;;;;;;;;;;;23.10;48.20;;;;;;8332093;28;19917;-44
2022/09/15 11:52:42;;;;;;;;;;;23.10;48.10;;;;;;8332175;28;19913;-43
2022/09/15 11:56:45;;;;;;;;;;;23.10;48.20;;;;;;8331731;28;19968;-44
2022/09/15 12:00:58;;;;;;;;;;;23.10;48.20;;;;;;8332262;28;19913;-44
2022/09/15 12:05:05;;;;;;;;;;;23.20;48.30;;;;;;8331392;28;19929;-44
2022/09/15 12:09:09;;;;;;;;;;;23.20;48.30;;;;;;8331098;28;19921;-45
2022/09/15 12:13:15;;;;;;;;;;;23.20;48.30;;;;;;8331759;28;20015;-44
2022/09/15 12:17:28;;;;;;;;;;;23.20;48.30;;;;;;8331429;28;19917;-43
2022/09/15 12:21:51;;;;;;;;;;;23.10;48.30;;;;;;8331098;28;20362;-45
2022/09/15 12:26:13;;;;;;;;;;;23.20;48.40;;;;;;8331442;28;20000;-44
2022/09/15 12:30:33;;;;;;;;;;;23.10;48.40;;;;;;8330838;28;19917;-44
2022/09/15 12:34:35;;;;;;;;;;;23.10;48.40;;;;;;8277362;28;19925;-44
2022/09/15 12:38:35;;;;;;;;;;;23.10;48.40;;;;;;8318227;28;19921;-45
2022/09/15 12:42:36;;;;;;;;;;;23.10;48.40;;;;;;8330615;28;20333;-43
2022/09/15 12:46:36;;;;;;;;;;;23.10;48.50;;;;;;8330735;28;19934;-44
2022/09/15 12:50:39;;;;;;;;;;;23.10;48.40;;;;;;8330331;28;20000;-46
2022/09/15 12:54:41;;;;;;;;;;;23.10;48.40;;;;;;8330370;28;20374;-45
2022/09/15 12:58:46;;;;;;;;;;;23.10;48.50;;;;;;8330198;28;19996;-43
2022/09/15 13:02:47;;;;;;;;;;;23.20;48.40;;;;;;8329577;28;19917;-44
2022/09/15 13:07:06;;;;;;;;;;;23.20;48.40;;;;;;8329536;28;19936;-45
2022/09/15 13:11:08;;;;;;;;;;;23.10;48.40;;;;;;8330178;28;19920;-48
2022/09/15 13:15:12;;;;;;;;;;;23.20;48.40;;;;;;8329353;28;19921;-44
2022/09/15 13:19:15;;;;;;;;;;;23.10;48.40;;;;;;8330153;28;20286;-44
2022/09/15 13:23:18;;;;;;;;;;;23.20;48.50;;;;;;8329911;28;19995;-46
2022/09/15 13:27:20;;;;;;;;;;;23.20;48.50;;;;;;8329214;28;19963;-43
2022/09/15 13:31:20;;;;;;;;;;;23.10;48.50;;;;;;8330124;28;19921;-45
2022/09/15 13:35:30;;;;;;;;;;;23.20;48.60;;;;;;8332112;28;20301;-45
2022/09/15 13:39:33;;;;;;;;;;;23.10;48.60;;;;;;8334893;28;19921;-45
2022/09/15 13:43:33;;;;;;;;;;;23.20;48.60;;;;;;8336212;28;20332;-47
2022/09/15 13:47:50;;;;;;;;;;;23.10;48.60;;;;;;8335548;28;19970;-47
2022/09/15 13:51:58;;;;;;;;;;;23.10;48.70;;;;;;8336262;28;20545;-45
2022/09/15 13:56:01;;;;;;;;;;;23.10;48.60;;;;;;8336201;28;19917;-46
2022/09/15 14:00:02;;;;;;;;;;;23.10;48.70;;;;;;8335564;28;19949;-45
2022/09/15 14:04:05;;;;;;;;;;;23.10;48.70;;;;;;8335295;28;20392;-47
2022/09/15 14:08:08;;;;;;;;;;;23.10;48.70;;;;;;8335496;28;19917;-44
2022/09/15 14:12:10;;;;;;;;;;;23.10;48.70;;;;;;8334795;28;19921;-48
2022/09/15 14:16:27;;;;;;;;;;;23.10;48.60;;;;;;8335203;28;19913;-44
2022/09/15 14:20:30;;;;;;;;;;;23.10;48.60;;;;;;8334505;28;20370;-44
2022/09/15 14:24:31;;;;;;;;;;;23.10;48.60;;;;;;8334819;28;20374;-44
2022/09/15 14:28:31;;;;;;;;;;;23.10;48.60;;;;;;8335258;28;19917;-45
2022/09/15 14:32:42;;;;;;;;;;;23.10;48.70;;;;;;8334206;28;19917;-46
2022/09/15 14:36:43;;;;;;;;;;;23.10;48.70;;;;;;8335027;28;19921;-44
2022/09/15 14:40:48;;;;;;;;;;;23.10;48.60;;;;;;8334455;28;19917;-44
2022/09/15 14:44:49;;;;;;;;;;;23.10;48.70;;;;;;8333706;28;19925;-45
2022/09/15 14:48:50;;;;;;;;;;;23.10;48.60;;;;;;8333210;28;19925;-44
2022/09/15 14:52:53;;;;;;;;;;;23.10;48.70;;;;;;8333993;28;20354;-44
2022/09/15 14:56:58;;;;;;;;;;;23.10;48.70;;;;;;8333536;28;20016;-45
2022/09/15 15:01:01;;;;;;;;;;;23.20;48.70;;;;;;8333412;28;20386;-45
2022/09/15 15:05:07;;;;;;;;;;;23.20;48.70;;;;;;8332946;28;19925;-45
2022/09/15 15:09:30;;;;;;;;;;;23.20;48.70;;;;;;8332451;28;20362;-46
2022/09/15 15:13:30;;;;;;;;;;;23.20;48.80;;;;;;8332957;28;19924;-45
2022/09/15 15:17:33;;;;;;;;;;;23.20;48.80;;;;;;8332565;28;20000;-45
2022/09/15 15:21:33;;;;;;;;;;;23.20;48.80;;;;;;8333330;28;19913;-46
2022/09/15 15:25:36;;;;;;;;;;;23.20;48.80;;;;;;8332679;28;19931;-44
2022/09/15 15:29:44;;;;;;;;;;;23.20;48.90;;;;;;8332306;28;19945;-45
2022/09/15 15:33:55;;;;;;;;;;;23.20;48.90;;;;;;8332526;28;19924;-45
2022/09/15 15:38:05;;;;;;;;;;;23.10;48.80;;;;;;8335025;28;19921;-45
2022/09/15 15:42:07;;;;;;;;;;;23.20;49.40;;;;;;8332120;28;20340;-45
2022/09/15 15:46:07;;;;;;;;;;;23.20;48.90;;;;;;8332215;28;20340;-45
2022/09/15 15:50:12;;;;;;;;;;;23.10;48.80;;;;;;8332049;28;19966;-47
2022/09/15 15:54:13;;;;;;;;;;;23.20;48.90;;;;;;8331448;28;20354;-44
2022/09/15 15:58:14;;;;;;;;;;;23.10;48.80;;;;;;8331468;28;19917;-45
2022/09/15 16:02:15;;;;;;;;;;;23.10;48.80;;;;;;8332200;28;19913;-45
2022/09/15 16:06:15;;;;;;;;;;;23.10;48.80;;;;;;8306267;28;19957;-47
2022/09/15 16:10:17;;;;;;;;;;;23.10;48.80;;;;;;8313255;28;19917;-45
2022/09/15 16:14:17;;;;;;;;;;;23.10;48.90;;;;;;8309281;28;19927;-46
2022/09/15 16:18:18;;;;;;;;;;;23.10;48.90;;;;;;8315173;28;20274;-43
2022/09/15 16:22:22;;;;;;;;;;;23.10;48.80;;;;;;8313834;28;19921;-45
2022/09/15 16:26:23;;;;;;;;;;;23.10;48.80;;;;;;8323789;28;20291;-45
2022/09/15 16:30:23;;;;;;;;;;;23.10;48.90;;;;;;8310480;28;19944;-46
2022/09/15 16:34:24;;;;;;;;;;;23.10;48.90;;;;;;8312509;28;19940;-46
2022/09/15 16:38:26;;;;;;;;;;;23.10;48.90;;;;;;8324545;28;20004;-46
2022/09/15 16:42:27;;;;;;;;;;;23.10;48.80;;;;;;8321218;28;20008;-48
2022/09/15 16:46:28;;;;;;;;;;;23.10;48.90;;;;;;8328387;28;19933;-45
2022/09/15 16:50:29;;;;;;;;;;;23.10;48.90;;;;;;8324045;28;19921;-45
2022/09/15 16:54:29;;;;;;;;;;;23.10;48.90;;;;;;8331475;28;20374;-45
2022/09/15 16:58:30;;;;;;;;;;;23.00;48.90;;;;;;8314454;28;19953;-45
2022/09/15 17:02:30;;;;;;;;;;;23.10;48.90;;;;;;8308370;28;19969;-44
2022/09/15 17:06:30;;;;;;;;;;;23.10;49.50;;;;;;8302197;28;20016;-45
2022/09/15 17:10:32;;;;;;;;;;;23.10;48.80;;;;;;8303151;28;19921;-45
2022/09/15 17:14:32;;;;;;;;;;;23.10;48.80;;;;;;8312391;28;19917;-45
2022/09/15 17:18:33;;;;;;;;;;;23.10;48.80;;;;;;8304951;28;20308;-46
2022/09/15 17:22:33;;;;;;;;;;;23.10;48.90;;;;;;8323456;28;19924;-46
2022/09/15 17:26:34;;;;;;;;;;;23.10;48.90;;;;;;8326838;28;19925;-46
2022/09/15 17:30:34;;;;;;;;;;;23.10;48.90;;;;;;8308542;28;19918;-45
2022/09/15 17:34:35;;;;;;;;;;;23.10;48.90;;;;;;8305319;28;19936;-44
2022/09/15 17:38:35;;;;;;;;;;;23.10;48.90;;;;;;8316697;28;20008;-45
2022/09/15 17:42:36;;;;;;;;;;;23.10;48.80;;;;;;8319176;28;20366;-44
2022/09/15 17:46:36;;;;;;;;;;;23.10;48.80;;;;;;8317756;28;20321;-43
2022/09/15 17:50:38;;;;;;;;;;;23.10;49.00;;;;;;8351965;28;19937;-45
2022/09/15 17:54:38;;;;;;;;;;;23.10;48.90;;;;;;8296811;28;20400;-46
2022/09/15 17:58:38;;;;;;;;;;;23.00;48.90;;;;;;8302345;28;19921;-44
2022/09/15 18:02:40;;;;;;;;;;;23.00;48.90;;;;;;8326771;28;19931;-43
2022/09/15 18:06:41;;;;;;;;;;;23.00;48.90;;;;;;8308366;28;19942;-45
2022/09/15 18:10:42;;;;;;;;;;;23.00;48.90;;;;;;8311509;28;20011;-44
2022/09/15 18:14:42;;;;;;;;;;;23.00;48.80;;;;;;8303578;28;20345;-46
2022/09/15 18:18:42;;;;;;;;;;;23.10;48.90;;;;;;8319988;28;20018;-45
2022/09/15 18:22:43;;;;;;;;;;;23.00;48.80;;;;;;8301323;28;19918;-44
2022/09/15 18:26:44;;;;;;;;;;;23.00;48.80;;;;;;8325948;28;20011;-44
2022/09/15 18:30:46;;;;;;;;;;;23.00;48.90;;;;;;8318828;28;19925;-44
2022/09/15 18:34:47;;;;;;;;;;;23.00;48.80;;;;;;8333410;28;19917;-47
2022/09/15 18:38:48;;;;;;;;;;;23.00;48.80;;;;;;8312249;28;19921;-43
2022/09/15 18:42:48;;;;;;;;;;;23.00;48.80;;;;;;8315753;28;19921;-44
2022/09/15 18:46:49;;;;;;;;;;;23.00;48.80;;;;;;8328639;28;20293;-44
2022/09/15 18:50:51;;;;;;;;;;;23.00;48.80;;;;;;8309405;28;20360;-43
2022/09/15 18:54:52;;;;;;;;;;;23.00;48.80;;;;;;8322496;28;20379;-44
2022/09/15 18:58:53;;;;;;;;;;;23.00;48.80;;;;;;8332524;28;19921;-43
2022/09/15 19:02:58;;;;;;;;;;;23.00;48.80;;;;;;8337994;28;20428;-44
2022/09/15 19:06:58;;;;;;;;;;;23.00;48.80;;;;;;8326132;28;19965;-44
2022/09/15 19:10:59;;;;;;;;;;;23.00;48.80;;;;;;8320718;28;19925;-44
2022/09/15 19:14:59;;;;;;;;;;;23.00;48.80;;;;;;8330095;28;20480;-44
2022/09/15 19:19:00;;;;;;;;;;;23.00;48.80;;;;;;8302427;28;19924;-44
2022/09/15 19:23:00;;;;;;;;;;;22.90;48.70;;;;;;8328268;28;20610;-44
2022/09/15 19:27:04;;;;;;;;;;;23.00;48.80;;;;;;8331117;28;19929;-45
2022/09/15 19:31:05;;;;;;;;;;;22.90;48.70;;;;;;8311784;28;19929;-45
2022/09/15 19:35:06;;;;;;;;;;;22.90;48.70;;;;;;8316425;28;19924;-44
2022/09/15 19:39:07;;;;;;;;;;;22.90;48.70;;;;;;8325049;28;19964;-44
2022/09/15 19:43:07;;;;;;;;;;;22.90;48.70;;;;;;8313267;28;20004;-43
2022/09/15 19:47:08;;;;;;;;;;;22.90;48.70;;;;;;8313781;28;20390;-44
2022/09/15 19:51:09;;;;;;;;;;;22.90;48.70;;;;;;8298280;28;19921;-44
2022/09/15 19:55:10;;;;;;;;;;;22.90;49.30;;;;;;8301996;28;19979;-44
2022/09/15 19:59:13;;;;;;;;;;;22.90;48.70;;;;;;8314537;28;21224;-44
2022/09/15 20:03:13;;;;;;;;;;;22.90;48.70;;;;;;8330692;28;19917;-44
2022/09/15 20:07:14;;;;;;;;;;;22.90;48.70;;;;;;8331944;28;19928;-44
2022/09/15 20:11:14;;;;;;;;;;;22.90;48.70;;;;;;8331840;28;20004;-44
2022/09/15 20:15:14;;;;;;;;;;;22.90;48.70;;;;;;8331267;28;19925;-45
2022/09/15 20:19:15;;;;;;;;;;;22.90;48.70;;;;;;8331528;28;19913;-45
2022/09/15 20:23:15;;;;;;;;;;;22.90;48.70;;;;;;8331757;28;19963;-45
2022/09/15 20:27:16;;;;;;;;;;;22.90;48.70;;;;;;8330895;28;19945;-45
2022/09/15 20:31:18;;;;;;;;;;;22.90;48.70;;;;;;8331282;28;19982;-45
2022/09/15 20:35:19;;;;;;;;;;;22.90;48.70;;;;;;8331199;28;19921;-45
2022/09/15 20:39:21;;;;;;;;;;;22.90;48.60;;;;;;8331023;28;19920;-43
2022/09/15 20:43:21;;;;;;;;;;;22.90;48.60;;;;;;8330397;28;19913;-44
2022/09/15 20:47:22;;;;;;;;;;;22.90;48.60;;;;;;8330126;28;19917;-43
2022/09/15 20:51:24;;;;;;;;;;;22.80;48.60;;;;;;8330693;28;19979;-44
2022/09/15 20:55:24;;;;;;;;;;;22.80;48.60;;;;;;8330361;28;19996;-44
2022/09/15 20:59:25;;;;;;;;;;;22.80;48.60;;;;;;8330371;28;19914;-46
2022/09/15 21:03:25;;;;;;;;;;;22.80;48.50;;;;;;8330338;28;20332;-44
2022/09/15 21:07:26;;;;;;;;;;;22.80;48.50;;;;;;8330320;28;19924;-45
2022/09/15 21:11:27;;;;;;;;;;;22.80;48.50;;;;;;8329949;28;19917;-46
2022/09/15 21:15:27;;;;;;;;;;;22.80;48.60;;;;;;8330343;28;19917;-46
2022/09/15 21:19:27;;;;;;;;;;;22.80;48.50;;;;;;8330627;28;20384;-44
2022/09/15 21:23:32;;;;;;;;;;;22.80;48.50;;;;;;8329656;28;19918;-46
2022/09/15 21:27:33;;;;;;;;;;;22.80;48.60;;;;;;8330265;28;19979;-45
2022/09/15 21:31:33;;;;;;;;;;;22.80;48.60;;;;;;8330262;28;19917;-45
2022/09/15 21:35:34;;;;;;;;;;;22.80;48.60;;;;;;8329562;28;19921;-46
2022/09/15 21:39:34;;;;;;;;;;;22.80;48.60;;;;;;8330109;28;19975;-45
2022/09/15 21:43:35;;;;;;;;;;;22.80;48.60;;;;;;8329759;28;19925;-42
2022/09/15 21:47:36;;;;;;;;;;;22.80;48.60;;;;;;8329405;28;19979;-45
2022/09/15 21:51:36;;;;;;;;;;;22.80;48.60;;;;;;8329866;28;20001;-45
2022/09/15 21:55:37;;;;;;;;;;;22.70;48.50;;;;;;8331182;28;19921;-44
2022/09/15 21:59:38;;;;;;;;;;;22.80;48.50;;;;;;8335607;28;20377;-43
2022/09/15 22:03:41;;;;;;;;;;;22.80;48.50;;;;;;8310252;28;19921;-45
2022/09/15 22:07:41;;;;;;;;;;;22.80;48.50;;;;;;8325217;28;20020;-45
2022/09/15 22:11:42;;;;;;;;;;;22.80;48.50;;;;;;8335170;28;19917;-45
2022/09/15 22:15:42;;;;;;;;;;;22.80;48.50;;;;;;8335440;28;19917;-45
2022/09/15 22:19:43;;;;;;;;;;;22.70;48.50;;;;;;8335526;28;19967;-46
2022/09/15 22:23:45;;;;;;;;;;;22.70;48.60;;;;;;8334722;28;19954;-45
2022/09/15 22:27:45;;;;;;;;;;;22.70;48.50;;;;;;8335608;28;19917;-45
2022/09/15 22:31:46;;;;;;;;;;;22.70;48.50;;;;;;8334985;28;20003;-44
2022/09/15 22:35:46;;;;;;;;;;;22.70;48.50;;;;;;8334258;28;19927;-45
2022/09/15 22:39:47;;;;;;;;;;;22.70;48.50;;;;;;8335155;28;20468;-45
2022/09/15 22:43:48;;;;;;;;;;;22.70;48.50;;;;;;8334632;28;19960;-46
2022/09/15 22:47:48;;;;;;;;;;;22.70;48.50;;;;;;8333950;28;19927;-45
2022/09/15 22:51:49;;;;;;;;;;;22.70;48.50;;;;;;8334401;28;20330;-45
2022/09/15 22:55:49;;;;;;;;;;;22.70;48.50;;;;;;8334184;28;19919;-45
2022/09/15 22:59:50;;;;;;;;;;;22.70;48.50;;;;;;8333920;28;19917;-46
2022/09/15 23:03:51;;;;;;;;;;;22.70;48.50;;;;;;8334235;28;19925;-44
2022/09/15 23:07:52;;;;;;;;;;;22.70;48.50;;;;;;8332858;28;19967;-45
2022/09/15 23:11:52;;;;;;;;;;;22.70;48.50;;;;;;8333343;28;19924;-46
2022/09/15 23:15:52;;;;;;;;;;;22.70;48.50;;;;;;8333593;28;19988;-45
2022/09/15 23:19:53;;;;;;;;;;;22.70;48.50;;;;;;8333909;28;19917;-45
2022/09/15 23:23:54;;;;;;;;;;;22.70;48.50;;;;;;8332929;28;19926;-45
2022/09/15 23:27:55;;;;;;;;;;;22.60;48.40;;;;;;8333291;28;19963;-45
2022/09/15 23:31:55;;;;;;;;;;;22.60;48.40;;;;;;8333241;28;19917;-45